createdAt,value
2023-02-22T06:03:39.472Z,25.00
2023-02-22T07:23:21.101Z,25.89
2023-02-22T07:26:21.262Z,29.70
2023-02-22T07:27:21.350Z,27.54
2023-02-22T07:29:21.529Z,29.17
2023-02-22T07:30:21.638Z,28.75
2023-02-22T07:32:21.758Z,26.15
2023-02-22T07:33:21.679Z,25.00
2023-02-22T07:34:21.715Z,28.31
2023-02-22T07:35:21.758Z,26.63
2023-02-22T07:36:21.800Z,26.81
2023-02-22T07:38:21.924Z,27.46
2023-02-22T07:39:22.030Z,27.65
2023-02-22T07:40:22.156Z,29.98
2023-02-22T07:41:22.110Z,30.27
2023-02-22T07:42:21.180Z,29.11
2023-02-22T07:43:22.256Z,26.14
2023-02-22T07:44:21.313Z,26.00
2023-02-22T07:45:22.424Z,27.73
2023-02-22T07:46:21.403Z,29.69
2023-02-22T07:47:22.653Z,29.51
2023-02-22T07:51:00.083Z,25.00
2023-02-22T07:52:01.097Z,25.00
2023-02-22T07:53:00.927Z,25.00
2023-02-22T07:55:01.087Z,25.00
2023-02-22T07:56:00.895Z,25.00
2023-02-22T07:57:01.023Z,25.00
2023-02-22T07:58:01.054Z,27.30
2023-02-22T07:59:00.225Z,25.34
2023-02-22T08:00:00.967Z,26.63
2023-02-22T08:01:01.001Z,25.00
2023-02-22T08:02:00.973Z,25.13
2023-02-22T08:03:01.156Z,29.18
2023-02-22T08:04:02.528Z,28.84
2023-02-22T08:05:59.869Z,30.70
2023-02-22T08:07:01.047Z,26.75
2023-02-22T08:08:00.913Z,30.19
2023-02-22T08:09:00.928Z,26.83
2023-02-22T08:10:00.995Z,26.38
2023-02-22T08:10:59.920Z,26.49
2023-02-22T08:12:14.100Z,25.27
2023-02-22T08:13:00.999Z,26.09
2023-02-22T08:40:22.075Z,27.15
2023-02-22T08:44:21.274Z,25.93
2023-02-22T08:45:21.171Z,29.52
2023-02-22T08:47:21.316Z,30.55
2023-02-22T08:50:21.763Z,25.85
2023-02-22T08:51:21.392Z,27.15
2023-02-22T08:52:21.448Z,29.68
2023-02-22T08:53:21.510Z,29.75
2023-02-22T08:54:21.684Z,31.13
2023-02-22T08:55:21.806Z,29.93
2023-02-22T08:56:21.651Z,29.07
2023-02-22T08:57:21.922Z,27.59
2023-02-22T08:58:21.645Z,27.89
2023-02-22T08:59:21.681Z,30.99
2023-02-22T09:00:21.719Z,34.24
2023-02-22T09:02:21.813Z,39.98
2023-02-22T09:03:21.851Z,39.60
2023-02-22T09:04:21.867Z,38.79
2023-02-22T09:05:21.878Z,41.55
2023-02-22T09:06:22.169Z,44.68
2023-02-22T09:09:21.907Z,47.89
2023-02-22T09:10:21.913Z,45.46
2023-02-22T09:12:21.910Z,48.18
2023-02-22T09:13:21.928Z,52.45
2023-02-22T09:15:40.463Z,25.00
2023-02-22T09:19:41.913Z,25.00
2023-02-22T09:25:41.672Z,25.00
2023-02-22T09:31:03.125Z,25.00
2023-02-22T09:39:14.420Z,25.00
2023-02-22T09:41:36.043Z,25.00
2023-02-22T09:42:33.784Z,25.00
2023-02-22T09:43:33.833Z,25.00
2023-02-22T09:44:33.690Z,25.00
2023-02-22T09:45:32.844Z,25.00
2023-02-22T09:46:33.707Z,25.00
2023-02-22T09:47:33.716Z,25.00
2023-02-22T09:48:33.658Z,24.93
2023-02-22T09:49:33.644Z,24.96
2023-02-22T09:50:33.883Z,25.00
2023-02-22T09:51:33.637Z,25.46
2023-02-22T09:52:32.644Z,25.00
2023-02-22T09:53:32.661Z,25.00
2023-02-22T09:54:33.618Z,25.00
2023-02-22T09:55:33.625Z,25.22
2023-02-22T09:56:33.609Z,25.00
2023-02-22T09:57:33.599Z,25.87
2023-02-22T09:58:32.579Z,25.83
2023-02-22T09:59:32.619Z,25.64
2023-02-22T10:00:32.587Z,25.00
2023-02-22T10:01:32.658Z,26.35
2023-02-22T10:02:32.593Z,29.26
2023-02-22T10:03:32.617Z,28.18
2023-02-22T10:04:32.563Z,27.52
2023-02-22T10:05:32.676Z,25.68
2023-02-22T10:06:33.548Z,25.06
2023-02-22T10:07:33.534Z,26.82
2023-02-22T10:08:33.535Z,25.40
2023-02-22T10:09:33.538Z,25.28
2023-02-22T10:10:33.602Z,25.00
2023-02-22T10:11:32.647Z,26.17
2023-02-22T10:12:32.636Z,25.67
2023-02-22T10:13:33.658Z,25.02
2023-02-22T10:14:33.690Z,26.39
2023-02-22T10:15:32.722Z,25.07
2023-02-22T10:16:32.778Z,26.41
2023-02-22T10:17:32.823Z,27.15
2023-02-22T10:18:33.941Z,25.73
2023-02-22T10:19:32.877Z,26.09
2023-02-22T10:20:33.946Z,25.00
2023-02-22T10:21:33.903Z,26.68
2023-02-22T10:22:32.906Z,26.02
2023-02-22T10:23:32.945Z,25.77
2023-02-22T10:24:33.913Z,26.33
2023-02-22T10:25:33.926Z,26.92
2023-02-22T10:26:32.924Z,26.22
2023-02-22T10:27:33.942Z,26.70
2023-02-22T10:28:33.922Z,27.57
2023-02-22T10:29:33.941Z,26.85
2023-02-22T10:30:34.608Z,27.64
2023-02-22T10:31:34.075Z,25.24
2023-02-22T10:32:34.146Z,25.41
2023-02-22T10:33:33.994Z,25.17
2023-02-22T10:34:33.998Z,27.42
2023-02-22T10:35:33.994Z,27.84
2023-02-22T10:36:33.993Z,26.91
2023-02-22T10:37:34.082Z,26.58
2023-02-22T10:38:34.033Z,27.04
2023-02-22T10:39:34.120Z,27.96
2023-02-22T10:40:33.071Z,28.72
2023-02-22T10:41:33.026Z,28.70
2023-02-22T10:42:34.019Z,28.37
2023-02-22T10:43:34.023Z,26.92
2023-02-22T10:44:34.036Z,25.69
2023-02-22T10:45:34.048Z,27.82
2023-02-22T10:46:34.009Z,26.35
2023-02-22T10:47:34.023Z,27.32
2023-02-22T10:48:34.014Z,26.80
2023-02-22T10:49:34.031Z,27.11
2023-02-22T10:50:34.439Z,26.38
2023-02-22T10:51:34.071Z,28.88
2023-02-22T10:52:34.192Z,27.35
2023-02-22T10:53:36.389Z,31.90
2023-02-22T10:54:34.102Z,37.68
2023-02-22T10:55:34.160Z,53.34
2023-02-22T10:56:34.078Z,51.41
2023-02-22T10:57:34.066Z,52.73
2023-02-22T10:58:33.062Z,51.19
2023-02-22T10:59:34.061Z,57.54
2023-02-22T11:00:34.042Z,59.75
2023-02-22T11:01:34.105Z,63.62
2023-02-22T11:02:33.265Z,63.96
2023-02-22T11:03:33.030Z,65.52
2023-02-22T11:04:33.022Z,67.45
2023-02-22T11:05:34.002Z,71.74
2023-02-22T11:06:34.038Z,73.37
2023-02-22T11:07:33.996Z,75.74
2023-02-22T11:08:33.987Z,78.01
2023-02-22T11:09:33.969Z,78.29
2023-02-22T11:10:34.029Z,80.97
2023-02-22T11:11:32.975Z,82.77
2023-02-22T11:12:32.980Z,82.48
2023-02-22T11:13:34.051Z,82.05
2023-02-22T11:14:33.933Z,82.76
2023-02-22T11:15:34.010Z,87.08
2023-02-22T11:16:33.087Z,86.33
2023-02-22T11:17:33.923Z,85.72
2023-02-22T11:18:33.942Z,85.50
2023-02-22T11:19:33.018Z,85.14
2023-02-22T11:20:33.924Z,88.67
2023-02-22T11:21:32.929Z,86.48
2023-02-22T11:22:33.935Z,89.89
2023-02-22T11:23:33.917Z,92.86
2023-02-22T11:24:48.423Z,88.36
2023-02-22T11:25:33.901Z,88.77
2023-02-22T11:26:33.900Z,89.67
2023-02-22T11:27:33.899Z,90.14
2023-02-22T11:28:33.892Z,93.77
2023-02-22T11:29:33.942Z,92.89
2023-02-22T11:30:34.144Z,93.67
2023-02-22T11:31:33.885Z,96.13
2023-02-22T11:32:32.841Z,95.14
2023-02-22T11:33:32.844Z,99.44
2023-02-22T11:34:33.823Z,95.62
2023-02-22T11:35:33.839Z,100.75
2023-02-22T11:36:33.813Z,101.99
2023-02-22T11:37:32.803Z,99.56
2023-02-22T11:38:33.827Z,100.68
2023-02-22T11:39:33.886Z,98.51
2023-02-22T11:40:34.752Z,100.09
2023-02-22T11:41:33.931Z,98.89
2023-02-22T11:42:33.816Z,102.01
2023-02-22T11:43:32.772Z,103.04
2023-02-22T11:44:33.753Z,101.62
2023-02-22T11:45:33.804Z,103.71
2023-02-22T11:46:33.815Z,102.31
2023-02-22T11:47:33.788Z,101.75
2023-02-22T11:48:32.732Z,101.95
2023-02-22T11:49:33.741Z,103.29
2023-02-22T11:50:33.746Z,105.97
2023-02-22T11:51:33.840Z,106.59
2023-02-22T11:52:33.725Z,106.32
2023-02-22T11:53:32.697Z,106.41
2023-02-22T11:54:32.725Z,107.76
2023-02-22T11:55:42.807Z,104.17
2023-02-22T11:56:38.028Z,104.51
2023-02-22T11:57:32.991Z,105.06
2023-02-22T11:58:32.924Z,106.09
2023-02-22T11:59:32.951Z,108.54
2023-02-22T12:00:34.027Z,113.29
2023-02-22T12:01:33.034Z,116.69
2023-02-22T12:02:34.058Z,117.54
2023-02-22T12:03:33.207Z,117.47
2023-02-22T12:04:34.265Z,121.74
2023-02-22T12:05:33.306Z,120.29
2023-02-22T12:06:34.226Z,118.60
2023-02-22T12:07:34.184Z,122.10
2023-02-22T12:08:33.210Z,120.31
2023-02-22T12:09:34.217Z,120.18
2023-02-22T12:10:34.237Z,120.32
2023-02-22T12:11:34.240Z,127.13
2023-02-22T12:12:34.225Z,125.68
2023-02-22T12:13:33.246Z,128.23
2023-02-22T12:14:34.269Z,134.10
2023-02-22T12:15:33.383Z,132.93
2023-02-22T12:16:33.357Z,145.90
2023-02-22T12:17:34.309Z,157.49
2023-02-22T12:18:34.341Z,155.13
2023-02-22T12:19:34.369Z,143.30
2023-02-22T12:20:34.337Z,142.93
2023-02-22T12:21:33.411Z,141.76
2023-02-22T12:22:34.366Z,135.79
2023-02-22T12:23:34.504Z,135.83
2023-02-22T12:24:34.346Z,135.39
2023-02-22T12:25:33.342Z,135.54
2023-02-22T12:26:34.477Z,134.58
2023-02-22T12:27:34.404Z,132.55
2023-02-22T12:28:34.379Z,132.89
2023-02-22T12:29:33.374Z,135.72
2023-02-22T12:30:33.775Z,129.78
2023-02-22T12:31:34.575Z,128.37
2023-02-22T12:32:34.707Z,128.01
2023-02-22T12:33:34.618Z,122.28
2023-02-22T12:34:34.639Z,124.31
2023-02-22T12:35:34.631Z,131.02
2023-02-22T12:36:34.629Z,131.10
2023-02-22T12:37:34.649Z,131.17
2023-02-22T12:38:33.631Z,130.24
2023-02-22T12:39:47.156Z,132.17
2023-02-22T12:40:34.686Z,132.44
2023-02-22T12:41:34.678Z,132.57
2023-02-22T12:42:33.697Z,128.99
2023-02-22T12:43:34.692Z,129.36
2023-02-22T12:44:34.685Z,128.95
2023-02-22T12:45:34.755Z,128.38
2023-02-22T12:46:34.756Z,125.78
2023-02-22T12:47:33.684Z,127.01
2023-02-22T12:48:34.637Z,122.59
2023-02-22T12:49:34.674Z,123.80
2023-02-22T12:50:33.605Z,121.52
2023-02-22T12:51:33.631Z,120.93
2023-02-22T12:52:34.645Z,121.19
2023-02-22T12:53:33.637Z,119.58
2023-02-22T12:54:33.676Z,117.01
2023-02-22T12:55:34.619Z,116.21
2023-02-22T12:56:34.637Z,117.58
2023-02-22T12:57:33.629Z,114.79
2023-02-22T12:58:34.644Z,114.19
2023-02-22T12:59:34.587Z,114.24
2023-02-22T13:00:34.547Z,111.35
2023-02-22T13:01:33.606Z,111.45
2023-02-22T13:02:33.637Z,111.23
2023-02-22T13:03:33.542Z,110.65
2023-02-22T13:04:34.598Z,110.49
2023-02-22T13:05:34.594Z,108.35
2023-02-22T13:06:34.522Z,108.85
2023-02-22T13:07:34.615Z,106.98
2023-02-22T13:08:33.522Z,106.04
2023-02-22T13:09:34.496Z,105.06
2023-02-22T13:10:34.489Z,105.08
2023-02-22T13:11:34.514Z,102.69
2023-02-22T13:12:34.498Z,102.48
2023-02-22T13:13:34.463Z,101.31
2023-02-22T13:14:33.485Z,99.92
2023-02-22T13:15:34.481Z,98.55
2023-02-22T13:16:34.458Z,96.40
2023-02-22T13:17:34.445Z,96.56
2023-02-22T13:18:33.527Z,94.92
2023-02-22T13:19:33.449Z,94.73
2023-02-22T13:20:34.482Z,94.51
2023-02-22T13:21:33.421Z,93.29
2023-02-22T13:22:33.400Z,91.38
2023-02-22T13:23:34.433Z,92.56
2023-02-22T14:20:51.853Z,25.00
2023-02-22T14:21:52.729Z,25.00
2023-02-22T14:22:51.888Z,25.00
2023-02-22T14:23:52.760Z,25.00
2023-02-22T14:24:52.086Z,25.00
2023-02-22T14:25:52.703Z,25.00
2023-02-22T14:50:26.622Z,25.00
2023-02-22T14:51:27.232Z,25.00
2023-02-22T14:55:26.706Z,17.17
2023-02-22T14:58:26.930Z,25.53
2023-02-22T15:01:33.961Z,25.84
2023-02-22T15:02:27.031Z,25.93
2023-02-22T15:03:29.051Z,17.51
2023-02-22T15:04:27.020Z,14.48
2023-02-22T15:05:26.005Z,5.87
2023-02-22T15:06:26.978Z,0.83
2023-02-22T15:08:26.969Z,0.00
2023-02-22T15:09:29.606Z,16.19
